sensor_id;sensor_type;location;lat;lon;timestamp;pressure;altitude;pressure_sealevel;temperature;humidity
54920;BME280;63804;53.120;8.764;2023-04-24T00:00:04;99988.59;;;13.62;74.18
54920;BME280;63804;53.120;8.764;2023-04-24T00:02:36;99995.72;;;13.62;74.54
54920;BME280;63804;53.120;8.764;2023-04-24T00:05:07;99990.78;;;13.67;73.69
54920;BME280;63804;53.120;8.764;2023-04-24T00:07:34;99991.69;;;13.58;73.46
54920;BME280;63804;53.120;8.764;2023-04-24T00:10:02;99983.56;;;13.59;73.18
54920;BME280;63804;53.120;8.764;2023-04-24T00:12:30;99983.63;;;13.68;72.99
54920;BME280;63804;53.120;8.764;2023-04-24T00:14:57;99980.50;;;13.72;72.51
54920;BME280;63804;53.120;8.764;2023-04-24T00:17:24;99973.16;;;13.66;73.35
54920;BME280;63804;53.120;8.764;2023-04-24T00:19:51;99966.69;;;13.69;73.06
54920;BME280;63804;53.120;8.764;2023-04-24T00:22:26;99973.81;;;13.68;72.98
54920;BME280;63804;53.120;8.764;2023-04-24T00:24:53;99962.34;;;13.68;72.90
54920;BME280;63804;53.120;8.764;2023-04-24T00:27:20;99963.34;;;13.67;72.85
54920;BME280;63804;53.120;8.764;2023-04-24T00:29:47;99972.84;;;13.69;72.36
54920;BME280;63804;53.120;8.764;2023-04-24T00:32:15;99973.28;;;13.64;72.30
54920;BME280;63804;53.120;8.764;2023-04-24T00:34:42;99971.25;;;13.58;72.81
54920;BME280;63804;53.120;8.764;2023-04-24T00:37:09;99963.88;;;13.52;72.70
54920;BME280;63804;53.120;8.764;2023-04-24T00:39:36;99957.19;;;13.48;72.94
54920;BME280;63804;53.120;8.764;2023-04-24T00:42:03;99965.00;;;13.50;72.74
54920;BME280;63804;53.120;8.764;2023-04-24T00:44:35;99968.94;;;13.46;71.93
54920;BME280;63804;53.120;8.764;2023-04-24T00:47:02;99978.16;;;13.51;71.01
54920;BME280;63804;53.120;8.764;2023-04-24T00:49:29;99959.69;;;13.50;70.16
54920;BME280;63804;53.120;8.764;2023-04-24T00:51:57;99956.28;;;13.39;69.23
54920;BME280;63804;53.120;8.764;2023-04-24T00:54:26;99971.25;;;13.40;68.59
54920;BME280;63804;53.120;8.764;2023-04-24T00:56:53;99983.28;;;13.35;68.32
54920;BME280;63804;53.120;8.764;2023-04-24T00:59:20;99960.69;;;13.21;68.13
54920;BME280;63804;53.120;8.764;2023-04-24T01:01:47;99973.56;;;13.26;67.76
54920;BME280;63804;53.120;8.764;2023-04-24T01:04:14;99973.28;;;13.19;67.50
54920;BME280;63804;53.120;8.764;2023-04-24T01:06:43;99961.28;;;13.25;67.05
54920;BME280;63804;53.120;8.764;2023-04-24T01:09:11;99965.09;;;13.40;66.56
54920;BME280;63804;53.120;8.764;2023-04-24T01:11:41;99970.00;;;13.35;66.03
54920;BME280;63804;53.120;8.764;2023-04-24T01:14:09;99974.50;;;13.34;66.37
54920;BME280;63804;53.120;8.764;2023-04-24T01:16:36;99968.25;;;13.26;66.37
54920;BME280;63804;53.120;8.764;2023-04-24T01:19:09;99962.28;;;13.14;66.90
54920;BME280;63804;53.120;8.764;2023-04-24T01:21:37;99961.75;;;13.10;66.46
54920;BME280;63804;53.120;8.764;2023-04-24T01:24:05;99949.13;;;13.12;66.71
54920;BME280;63804;53.120;8.764;2023-04-24T01:26:33;99946.47;;;13.12;66.59
54920;BME280;63804;53.120;8.764;2023-04-24T01:29:00;99945.59;;;13.22;66.23
54920;BME280;63804;53.120;8.764;2023-04-24T01:31:28;99944.59;;;13.23;66.48
54920;BME280;63804;53.120;8.764;2023-04-24T01:33:56;99944.03;;;13.19;66.28
54920;BME280;63804;53.120;8.764;2023-04-24T01:36:23;99947.00;;;13.16;66.36
54920;BME280;63804;53.120;8.764;2023-04-24T01:38:52;99937.28;;;13.07;66.58
54920;BME280;63804;53.120;8.764;2023-04-24T01:41:19;99925.19;;;13.12;66.38
54920;BME280;63804;53.120;8.764;2023-04-24T01:43:48;99927.44;;;13.17;65.96
54920;BME280;63804;53.120;8.764;2023-04-24T01:46:15;99935.78;;;13.22;65.83
54920;BME280;63804;53.120;8.764;2023-04-24T01:48:44;99930.09;;;13.17;66.08
54920;BME280;63804;53.120;8.764;2023-04-24T01:51:12;99923.47;;;13.21;65.83
54920;BME280;63804;53.120;8.764;2023-04-24T01:53:38;99923.94;;;13.16;66.06
54920;BME280;63804;53.120;8.764;2023-04-24T01:56:06;99938.06;;;13.17;65.70
54920;BME280;63804;53.120;8.764;2023-04-24T01:58:33;99929.50;;;13.23;65.49
54920;BME280;63804;53.120;8.764;2023-04-24T02:01:00;99918.47;;;13.18;65.72
54920;BME280;63804;53.120;8.764;2023-04-24T02:03:28;99920.00;;;13.21;65.16
54920;BME280;63804;53.120;8.764;2023-04-24T02:05:55;99914.44;;;13.14;65.19
54920;BME280;63804;53.120;8.764;2023-04-24T02:08:22;99920.41;;;13.16;65.00
54920;BME280;63804;53.120;8.764;2023-04-24T02:10:49;99925.13;;;13.22;64.66
54920;BME280;63804;53.120;8.764;2023-04-24T02:13:16;99934.41;;;13.18;64.81
54920;BME280;63804;53.120;8.764;2023-04-24T02:15:43;99923.53;;;13.11;64.97
54920;BME280;63804;53.120;8.764;2023-04-24T02:18:10;99920.38;;;13.26;64.59
54920;BME280;63804;53.120;8.764;2023-04-24T02:20:38;99911.97;;;13.30;64.22
54920;BME280;63804;53.120;8.764;2023-04-24T02:23:05;99916.34;;;13.22;64.61
54920;BME280;63804;53.120;8.764;2023-04-24T02:25:33;99927.97;;;13.21;64.96
54920;BME280;63804;53.120;8.764;2023-04-24T02:28:00;99910.03;;;13.23;64.73
54920;BME280;63804;53.120;8.764;2023-04-24T02:30:27;99920.81;;;13.21;64.70
54920;BME280;63804;53.120;8.764;2023-04-24T02:32:54;99925.91;;;13.14;64.88
54920;BME280;63804;53.120;8.764;2023-04-24T02:35:22;99924.19;;;13.23;64.76
54920;BME280;63804;53.120;8.764;2023-04-24T02:37:49;99923.94;;;13.16;65.14
54920;BME280;63804;53.120;8.764;2023-04-24T02:40:16;99918.97;;;13.04;65.82
54920;BME280;63804;53.120;8.764;2023-04-24T02:42:43;99920.69;;;12.95;66.41
54920;BME280;63804;53.120;8.764;2023-04-24T02:45:10;99925.63;;;12.90;66.72
54920;BME280;63804;53.120;8.764;2023-04-24T02:47:37;99924.25;;;12.86;67.26
54920;BME280;63804;53.120;8.764;2023-04-24T02:50:04;99913.75;;;12.84;67.28
54920;BME280;63804;53.120;8.764;2023-04-24T02:52:31;99931.16;;;12.97;67.38
54920;BME280;63804;53.120;8.764;2023-04-24T02:54:58;99922.84;;;12.82;67.69
54920;BME280;63804;53.120;8.764;2023-04-24T02:57:25;99916.50;;;12.75;67.88
54920;BME280;63804;53.120;8.764;2023-04-24T02:59:52;99922.94;;;12.72;68.10
54920;BME280;63804;53.120;8.764;2023-04-24T03:02:19;99924.00;;;12.79;68.16
54920;BME280;63804;53.120;8.764;2023-04-24T03:04:47;99915.59;;;12.84;67.78
54920;BME280;63804;53.120;8.764;2023-04-24T03:07:15;99920.91;;;12.84;67.87
54920;BME280;63804;53.120;8.764;2023-04-24T03:09:41;99923.53;;;12.93;67.47
54920;BME280;63804;53.120;8.764;2023-04-24T03:12:09;99931.00;;;12.80;67.79
54920;BME280;63804;53.120;8.764;2023-04-24T03:14:36;99928.88;;;12.84;67.69
54920;BME280;63804;53.120;8.764;2023-04-24T03:17:02;99927.59;;;12.88;67.69
54920;BME280;63804;53.120;8.764;2023-04-24T03:19:29;99931.00;;;12.80;67.81
54920;BME280;63804;53.120;8.764;2023-04-24T03:21:56;99929.91;;;12.73;67.75
54920;BME280;63804;53.120;8.764;2023-04-24T03:24:23;99928.16;;;12.82;67.76
54920;BME280;63804;53.120;8.764;2023-04-24T03:26:50;99929.31;;;12.79;67.83
54920;BME280;63804;53.120;8.764;2023-04-24T03:29:17;99926.38;;;12.82;67.94
54920;BME280;63804;53.120;8.764;2023-04-24T03:31:44;99922.81;;;12.91;67.71
54920;BME280;63804;53.120;8.764;2023-04-24T03:34:11;99911.72;;;12.96;67.09
54920;BME280;63804;53.120;8.764;2023-04-24T03:36:38;99918.03;;;12.95;67.21
54920;BME280;63804;53.120;8.764;2023-04-24T03:39:05;99919.91;;;12.85;67.48
54920;BME280;63804;53.120;8.764;2023-04-24T03:41:32;99915.00;;;12.90;66.96
54920;BME280;63804;53.120;8.764;2023-04-24T03:43:58;99917.06;;;12.96;66.72
54920;BME280;63804;53.120;8.764;2023-04-24T03:46:25;99921.06;;;13.00;66.38
54920;BME280;63804;53.120;8.764;2023-04-24T03:48:52;99925.47;;;12.91;66.57
54920;BME280;63804;53.120;8.764;2023-04-24T03:51:19;99934.28;;;12.92;66.31
54920;BME280;63804;53.120;8.764;2023-04-24T03:53:46;99929.41;;;12.87;66.54
54920;BME280;63804;53.120;8.764;2023-04-24T03:56:13;99932.06;;;12.87;66.39
54920;BME280;63804;53.120;8.764;2023-04-24T03:58:40;99930.41;;;12.86;66.14
54920;BME280;63804;53.120;8.764;2023-04-24T04:01:07;99931.38;;;12.85;66.37
54920;BME280;63804;53.120;8.764;2023-04-24T04:03:35;99927.97;;;12.93;65.83
54920;BME280;63804;53.120;8.764;2023-04-24T04:06:02;99937.47;;;12.96;65.89
54920;BME280;63804;53.120;8.764;2023-04-24T04:08:29;99930.34;;;12.96;65.99
54920;BME280;63804;53.120;8.764;2023-04-24T04:10:56;99928.13;;;12.91;65.93
54920;BME280;63804;53.120;8.764;2023-04-24T04:13:23;99931.63;;;12.92;66.23
54920;BME280;63804;53.120;8.764;2023-04-24T04:15:49;99933.53;;;13.00;65.42
54920;BME280;63804;53.120;8.764;2023-04-24T04:18:17;99929.59;;;13.04;65.33
54920;BME280;63804;53.120;8.764;2023-04-24T04:20:44;99938.41;;;13.04;65.20
54920;BME280;63804;53.120;8.764;2023-04-24T04:23:11;99935.94;;;12.93;65.48
54920;BME280;63804;53.120;8.764;2023-04-24T04:25:37;99932.06;;;12.87;65.20
54920;BME280;63804;53.120;8.764;2023-04-24T04:28:04;99937.09;;;12.90;65.16
54920;BME280;63804;53.120;8.764;2023-04-24T04:30:32;99939.06;;;12.88;65.14
54920;BME280;63804;53.120;8.764;2023-04-24T04:32:59;99930.78;;;12.91;64.89
54920;BME280;63804;53.120;8.764;2023-04-24T04:35:26;99934.03;;;12.85;65.07
54920;BME280;63804;53.120;8.764;2023-04-24T04:37:53;99941.88;;;12.87;64.81
54920;BME280;63804;53.120;8.764;2023-04-24T04:40:20;99942.41;;;12.90;64.46
54920;BME280;63804;53.120;8.764;2023-04-24T04:42:46;99938.19;;;12.98;63.98
54920;BME280;63804;53.120;8.764;2023-04-24T04:45:14;99933.81;;;12.97;63.64
54920;BME280;63804;53.120;8.764;2023-04-24T04:47:43;99927.59;;;12.88;63.87
54920;BME280;63804;53.120;8.764;2023-04-24T04:50:11;99940.88;;;12.88;63.85
54920;BME280;63804;53.120;8.764;2023-04-24T04:52:38;99943.78;;;12.95;63.43
54920;BME280;63804;53.120;8.764;2023-04-24T04:55:05;99952.31;;;12.98;63.13
54920;BME280;63804;53.120;8.764;2023-04-24T04:57:33;99952.75;;;12.93;63.29
54920;BME280;63804;53.120;8.764;2023-04-24T04:59:59;99945.91;;;12.91;62.99
54920;BME280;63804;53.120;8.764;2023-04-24T05:02:26;99946.19;;;12.88;63.06
54920;BME280;63804;53.120;8.764;2023-04-24T05:04:53;99944.25;;;12.90;63.28
54920;BME280;63804;53.120;8.764;2023-04-24T05:07:21;99953.38;;;13.05;63.01
54920;BME280;63804;53.120;8.764;2023-04-24T05:09:48;99943.88;;;13.03;62.49
54920;BME280;63804;53.120;8.764;2023-04-24T05:12:15;99952.88;;;12.92;62.65
54920;BME280;63804;53.120;8.764;2023-04-24T05:14:41;99956.97;;;12.86;62.67
54920;BME280;63804;53.120;8.764;2023-04-24T05:17:08;99949.59;;;12.80;62.89
54920;BME280;63804;53.120;8.764;2023-04-24T05:19:35;99949.22;;;12.93;62.68
54920;BME280;63804;53.120;8.764;2023-04-24T05:22:04;99942.63;;;12.97;62.60
54920;BME280;63804;53.120;8.764;2023-04-24T05:24:34;99949.72;;;13.06;62.26
54920;BME280;63804;53.120;8.764;2023-04-24T05:27:02;99938.84;;;13.00;62.23
54920;BME280;63804;53.120;8.764;2023-04-24T05:29:29;99949.44;;;13.09;61.81
54920;BME280;63804;53.120;8.764;2023-04-24T05:31:57;99940.63;;;13.09;61.80
54920;BME280;63804;53.120;8.764;2023-04-24T05:34:24;99960.94;;;13.00;62.36
54920;BME280;63804;53.120;8.764;2023-04-24T05:36:51;99954.97;;;12.98;62.27
54920;BME280;63804;53.120;8.764;2023-04-24T05:39:18;99956.63;;;12.99;62.46
54920;BME280;63804;53.120;8.764;2023-04-24T05:41:46;99961.34;;;13.05;62.40
54920;BME280;63804;53.120;8.764;2023-04-24T05:44:13;99954.72;;;12.91;62.77
54920;BME280;63804;53.120;8.764;2023-04-24T05:46:40;99962.84;;;12.90;62.96
54920;BME280;63804;53.120;8.764;2023-04-24T05:49:07;99967.22;;;13.09;62.64
54920;BME280;63804;53.120;8.764;2023-04-24T05:51:34;99971.75;;;12.99;62.86
54920;BME280;63804;53.120;8.764;2023-04-24T05:54:02;99971.03;;;12.97;62.48
54920;BME280;63804;53.120;8.764;2023-04-24T05:56:29;99959.91;;;13.11;62.29
54920;BME280;63804;53.120;8.764;2023-04-24T05:58:57;99953.31;;;13.15;62.07
54920;BME280;63804;53.120;8.764;2023-04-24T06:01:24;99958.16;;;13.02;62.60
54920;BME280;63804;53.120;8.764;2023-04-24T06:03:54;99970.25;;;13.14;62.28
54920;BME280;63804;53.120;8.764;2023-04-24T06:06:21;99959.44;;;13.25;62.44
54920;BME280;63804;53.120;8.764;2023-04-24T06:08:48;99974.25;;;13.28;62.66
54920;BME280;63804;53.120;8.764;2023-04-24T06:11:15;99979.59;;;13.18;62.76
54920;BME280;63804;53.120;8.764;2023-04-24T06:13:42;99974.50;;;13.07;62.73
54920;BME280;63804;53.120;8.764;2023-04-24T06:16:09;99973.66;;;13.06;62.72
54920;BME280;63804;53.120;8.764;2023-04-24T06:18:36;99969.56;;;13.12;63.29
54920;BME280;63804;53.120;8.764;2023-04-24T06:21:03;99977.06;;;13.26;62.85
54920;BME280;63804;53.120;8.764;2023-04-24T06:23:30;99981.97;;;13.21;62.89
54920;BME280;63804;53.120;8.764;2023-04-24T06:25:59;99978.22;;;13.14;63.04
54920;BME280;63804;53.120;8.764;2023-04-24T06:28:26;99982.63;;;13.05;63.40
54920;BME280;63804;53.120;8.764;2023-04-24T06:30:53;99987.03;;;13.14;63.19
54920;BME280;63804;53.120;8.764;2023-04-24T06:33:20;99979.06;;;13.14;63.13
54920;BME280;63804;53.120;8.764;2023-04-24T06:35:49;99984.38;;;13.14;63.06
54920;BME280;63804;53.120;8.764;2023-04-24T06:38:16;99991.53;;;13.14;63.01
54920;BME280;63804;53.120;8.764;2023-04-24T06:40:43;99992.59;;;13.21;62.84
54920;BME280;63804;53.120;8.764;2023-04-24T06:43:10;99993.44;;;13.22;62.77
54920;BME280;63804;53.120;8.764;2023-04-24T06:45:38;99995.75;;;13.07;63.24
54920;BME280;63804;53.120;8.764;2023-04-24T06:48:06;99996.19;;;13.02;63.42
54920;BME280;63804;53.120;8.764;2023-04-24T06:50:33;99996.19;;;13.02;63.32
54920;BME280;63804;53.120;8.764;2023-04-24T06:53:00;100000.38;;;13.05;63.45
54920;BME280;63804;53.120;8.764;2023-04-24T06:55:27;99993.09;;;13.07;63.66
54920;BME280;63804;53.120;8.764;2023-04-24T06:57:54;100000.38;;;13.05;63.44
54920;BME280;63804;53.120;8.764;2023-04-24T07:00:21;100003.34;;;13.02;63.78
54920;BME280;63804;53.120;8.764;2023-04-24T07:02:50;100006.41;;;12.97;63.59
54920;BME280;63804;53.120;8.764;2023-04-24T07:05:18;100005.03;;;12.93;63.90
54920;BME280;63804;53.120;8.764;2023-04-24T07:07:49;99997.31;;;13.00;64.07
54920;BME280;63804;53.120;8.764;2023-04-24T07:10:17;100001.09;;;12.97;63.84
54920;BME280;63804;53.120;8.764;2023-04-24T07:12:44;99999.53;;;13.04;64.01
54920;BME280;63804;53.120;8.764;2023-04-24T07:15:11;99999.97;;;13.00;64.18
54920;BME280;63804;53.120;8.764;2023-04-24T07:17:39;100001.81;;;12.99;64.15
54920;BME280;63804;53.120;8.764;2023-04-24T07:20:10;99994.28;;;13.22;63.59
54920;BME280;63804;53.120;8.764;2023-04-24T07:22:38;100001.06;;;13.34;63.06
54920;BME280;63804;53.120;8.764;2023-04-24T07:25:06;99996.25;;;13.48;62.64
54920;BME280;63804;53.120;8.764;2023-04-24T07:27:34;100005.97;;;13.57;62.84
54920;BME280;63804;53.120;8.764;2023-04-24T07:30:02;100003.06;;;13.50;62.73
54920;BME280;63804;53.120;8.764;2023-04-24T07:32:30;100011.47;;;13.55;62.36
54920;BME280;63804;53.120;8.764;2023-04-24T07:34:57;100017.22;;;13.69;61.84
54920;BME280;63804;53.120;8.764;2023-04-24T07:37:24;100016.09;;;13.71;61.81
54920;BME280;63804;53.120;8.764;2023-04-24T07:39:51;100007.03;;;13.64;61.41
54920;BME280;63804;53.120;8.764;2023-04-24T07:42:18;100013.97;;;13.75;61.19
54920;BME280;63804;53.120;8.764;2023-04-24T07:44:45;100023.94;;;13.90;60.67
54920;BME280;63804;53.120;8.764;2023-04-24T07:47:14;100007.50;;;13.77;61.18
54920;BME280;63804;53.120;8.764;2023-04-24T07:49:44;100014.56;;;13.69;61.08
54920;BME280;63804;53.120;8.764;2023-04-24T07:52:11;100021.50;;;13.79;60.97
54920;BME280;63804;53.120;8.764;2023-04-24T07:54:38;100022.78;;;13.75;61.20
54920;BME280;63804;53.120;8.764;2023-04-24T07:57:05;100029.47;;;13.79;61.20
54920;BME280;63804;53.120;8.764;2023-04-24T07:59:33;100029.31;;;13.81;60.61
54920;BME280;63804;53.120;8.764;2023-04-24T08:02:00;100015.00;;;14.00;60.41
54920;BME280;63804;53.120;8.764;2023-04-24T08:04:28;100015.78;;;13.92;59.93
54920;BME280;63804;53.120;8.764;2023-04-24T08:06:55;100027.19;;;13.84;59.91
54920;BME280;63804;53.120;8.764;2023-04-24T08:09:22;100032.16;;;13.79;59.78
54920;BME280;63804;53.120;8.764;2023-04-24T08:11:52;100025.75;;;13.72;60.04
54920;BME280;63804;53.120;8.764;2023-04-24T08:14:20;100039.00;;;13.82;60.03
54920;BME280;63804;53.120;8.764;2023-04-24T08:16:47;100042.63;;;13.81;60.20
54920;BME280;63804;53.120;8.764;2023-04-24T08:19:14;100049.16;;;13.51;60.66
54920;BME280;63804;53.120;8.764;2023-04-24T08:21:41;100052.88;;;13.30;61.60
54920;BME280;63804;53.120;8.764;2023-04-24T08:24:08;100054.97;;;13.36;61.38
54920;BME280;63804;53.120;8.764;2023-04-24T08:26:35;100052.19;;;13.56;61.19
54920;BME280;63804;53.120;8.764;2023-04-24T08:29:02;100056.72;;;13.46;61.13
54920;BME280;63804;53.120;8.764;2023-04-24T08:31:29;100063.28;;;13.51;61.51
54920;BME280;63804;53.120;8.764;2023-04-24T08:33:56;100061.72;;;13.76;60.56
54920;BME280;63804;53.120;8.764;2023-04-24T08:36:23;100049.63;;;14.00;59.73
54920;BME280;63804;53.120;8.764;2023-04-24T08:39:05;100052.22;;;14.09;58.75
54920;BME280;63804;53.120;8.764;2023-04-24T08:41:34;100048.63;;;14.19;58.92
54920;BME280;63804;53.120;8.764;2023-04-24T08:44:02;100046.72;;;14.11;58.66
54920;BME280;63804;53.120;8.764;2023-04-24T08:46:30;100052.34;;;14.08;58.75
54920;BME280;63804;53.120;8.764;2023-04-24T08:48:58;100059.84;;;14.04;58.90
54920;BME280;63804;53.120;8.764;2023-04-24T08:51:26;100056.47;;;14.02;58.72
54920;BME280;63804;53.120;8.764;2023-04-24T08:53:53;100051.22;;;13.93;58.36
54920;BME280;63804;53.120;8.764;2023-04-24T08:56:21;100048.56;;;13.75;58.91
54920;BME280;63804;53.120;8.764;2023-04-24T08:58:51;100065.13;;;13.69;58.74
54920;BME280;63804;53.120;8.764;2023-04-24T09:01:19;100052.56;;;13.61;58.77
54920;BME280;63804;53.120;8.764;2023-04-24T09:03:49;100047.41;;;13.59;58.95
54920;BME280;63804;53.120;8.764;2023-04-24T09:06:17;100057.59;;;13.64;59.28
54920;BME280;63804;53.120;8.764;2023-04-24T09:08:45;100065.97;;;13.69;58.74
54920;BME280;63804;53.120;8.764;2023-04-24T09:11:13;100062.75;;;13.65;59.01
54920;BME280;63804;53.120;8.764;2023-04-24T09:13:41;100054.88;;;13.74;58.84
54920;BME280;63804;53.120;8.764;2023-04-24T09:16:08;100057.16;;;13.86;58.42
54920;BME280;63804;53.120;8.764;2023-04-24T09:18:35;100050.56;;;13.90;58.19
54920;BME280;63804;53.120;8.764;2023-04-24T09:21:09;100061.97;;;13.83;58.05
54920;BME280;63804;53.120;8.764;2023-04-24T09:23:36;100055.81;;;13.82;57.96
54920;BME280;63804;53.120;8.764;2023-04-24T09:26:04;100058.31;;;13.66;58.26
54920;BME280;63804;53.120;8.764;2023-04-24T09:28:39;100063.22;;;13.61;58.64
54920;BME280;63804;53.120;8.764;2023-04-24T09:31:12;100058.69;;;13.71;58.85
54920;BME280;63804;53.120;8.764;2023-04-24T09:33:55;100057.75;;;13.62;59.79
54920;BME280;63804;53.120;8.764;2023-04-24T09:36:31;100062.69;;;13.57;60.05
54920;BME280;63804;53.120;8.764;2023-04-24T09:39:05;100062.88;;;13.46;60.30
54920;BME280;63804;53.120;8.764;2023-04-24T09:41:33;100067.84;;;13.31;60.46
54920;BME280;63804;53.120;8.764;2023-04-24T09:44:17;100073.34;;;13.30;60.42
54920;BME280;63804;53.120;8.764;2023-04-24T09:46:45;100074.47;;;13.17;61.19
54920;BME280;63804;53.120;8.764;2023-04-24T09:49:13;100076.69;;;13.22;61.29
54920;BME280;63804;53.120;8.764;2023-04-24T09:51:42;100067.47;;;13.26;61.57
54920;BME280;63804;53.120;8.764;2023-04-24T09:54:17;100073.16;;;13.31;60.96
54920;BME280;63804;53.120;8.764;2023-04-24T09:56:46;100078.50;;;13.31;61.03
54920;BME280;63804;53.120;8.764;2023-04-24T09:59:15;100073.50;;;13.28;60.94
54920;BME280;63804;53.120;8.764;2023-04-24T10:01:42;100076.53;;;13.33;60.68
54920;BME280;63804;53.120;8.764;2023-04-24T10:04:31;100072.88;;;13.34;60.42
54920;BME280;63804;53.120;8.764;2023-04-24T10:06:58;100078.09;;;13.26;60.53
54920;BME280;63804;53.120;8.764;2023-04-24T10:09:26;100081.19;;;13.22;60.72
54920;BME280;63804;53.120;8.764;2023-04-24T10:11:54;100084.41;;;13.15;60.81
54920;BME280;63804;53.120;8.764;2023-04-24T10:14:23;100079.78;;;13.27;60.73
54920;BME280;63804;53.120;8.764;2023-04-24T10:16:53;100083.22;;;13.37;60.54
54920;BME280;63804;53.120;8.764;2023-04-24T10:19:20;100086.09;;;13.26;60.83
54920;BME280;63804;53.120;8.764;2023-04-24T10:21:48;100087.63;;;13.29;60.46
54920;BME280;63804;53.120;8.764;2023-04-24T10:24:18;100086.34;;;13.33;60.43
54920;BME280;63804;53.120;8.764;2023-04-24T10:26:48;100089.56;;;13.27;60.49
54920;BME280;63804;53.120;8.764;2023-04-24T10:29:18;100093.63;;;13.21;60.66
54920;BME280;63804;53.120;8.764;2023-04-24T10:31:45;100085.84;;;13.10;61.22
54920;BME280;63804;53.120;8.764;2023-04-24T10:34:16;100081.66;;;13.07;61.56
54920;BME280;63804;53.120;8.764;2023-04-24T10:36:51;100087.13;;;13.06;61.54
54920;BME280;63804;53.120;8.764;2023-04-24T10:39:23;100083.63;;;13.05;61.48
54920;BME280;63804;53.120;8.764;2023-04-24T10:41:55;100089.78;;;13.06;61.49
54920;BME280;63804;53.120;8.764;2023-04-24T10:44:24;100099.53;;;13.15;60.89
54920;BME280;63804;53.120;8.764;2023-04-24T10:46:57;100096.38;;;13.02;61.63
54920;BME280;63804;53.120;8.764;2023-04-24T10:49:29;100094.66;;;13.10;61.55
54920;BME280;63804;53.120;8.764;2023-04-24T10:52:01;100088.31;;;13.21;61.41
54920;BME280;63804;53.120;8.764;2023-04-24T10:54:44;100097.56;;;13.17;61.63
54920;BME280;63804;53.120;8.764;2023-04-24T10:59:47;100098.31;;;13.00;62.54
54920;BME280;63804;53.120;8.764;2023-04-24T11:02:15;100101.63;;;13.21;61.96
54920;BME280;63804;53.120;8.764;2023-04-24T11:04:43;100106.53;;;13.26;61.80
54920;BME280;63804;53.120;8.764;2023-04-24T11:07:13;100094.44;;;13.31;61.65
54920;BME280;63804;53.120;8.764;2023-04-24T11:09:42;100097.81;;;13.33;61.46
54920;BME280;63804;53.120;8.764;2023-04-24T11:12:11;100099.91;;;13.30;61.63
54920;BME280;63804;53.120;8.764;2023-04-24T11:17:38;100109.56;;;13.31;62.00
54920;BME280;63804;53.120;8.764;2023-04-24T11:20:11;100099.09;;;13.20;61.97
54920;BME280;63804;53.120;8.764;2023-04-24T11:23:05;100101.03;;;13.27;61.96
54920;BME280;63804;53.120;8.764;2023-04-24T11:25:33;100109.88;;;13.18;62.49
54920;BME280;63804;53.120;8.764;2023-04-24T11:28:05;100098.69;;;13.14;62.86
54920;BME280;63804;53.120;8.764;2023-04-24T11:30:33;100095.22;;;13.04;63.30
54920;BME280;63804;53.120;8.764;2023-04-24T11:33:04;100105.13;;;13.12;63.53
54920;BME280;63804;53.120;8.764;2023-04-24T11:35:39;100104.59;;;13.08;63.75
54920;BME280;63804;53.120;8.764;2023-04-24T11:38:06;100104.84;;;13.15;64.04
54920;BME280;63804;53.120;8.764;2023-04-24T11:40:51;100107.66;;;13.13;64.46
54920;BME280;63804;53.120;8.764;2023-04-24T11:43:18;100106.00;;;13.03;65.41
54920;BME280;63804;53.120;8.764;2023-04-24T11:45:49;100113.28;;;13.01;65.72
54920;BME280;63804;53.120;8.764;2023-04-24T11:48:20;100120.69;;;13.07;65.81
54920;BME280;63804;53.120;8.764;2023-04-24T11:50:50;100118.47;;;13.02;66.01
54920;BME280;63804;53.120;8.764;2023-04-24T11:53:19;100126.06;;;12.87;66.53
54920;BME280;63804;53.120;8.764;2023-04-24T11:55:48;100125.50;;;12.74;66.66
54920;BME280;63804;53.120;8.764;2023-04-24T11:58:20;100134.91;;;12.78;66.63
54920;BME280;63804;53.120;8.764;2023-04-24T12:00:57;100129.88;;;12.75;67.02
54920;BME280;63804;53.120;8.764;2023-04-24T12:03:25;100131.41;;;12.68;67.77
54920;BME280;63804;53.120;8.764;2023-04-24T12:06:08;100136.84;;;12.66;68.31
54920;BME280;63804;53.120;8.764;2023-04-24T12:08:38;100145.81;;;12.56;68.97
54920;BME280;63804;53.120;8.764;2023-04-24T12:11:06;100150.44;;;12.63;69.66
54920;BME280;63804;53.120;8.764;2023-04-24T12:13:37;100144.25;;;12.63;70.24
54920;BME280;63804;53.120;8.764;2023-04-24T12:16:04;100160.91;;;12.65;70.83
54920;BME280;63804;53.120;8.764;2023-04-24T12:18:32;100155.91;;;12.52;71.24
54920;BME280;63804;53.120;8.764;2023-04-24T12:21:25;100152.38;;;12.32;73.43
54920;BME280;63804;53.120;8.764;2023-04-24T12:24:00;100158.22;;;12.16;73.83
54920;BME280;63804;53.120;8.764;2023-04-24T12:26:27;100155.19;;;12.21;73.42
54920;BME280;63804;53.120;8.764;2023-04-24T12:29:01;100156.16;;;12.39;73.44
54920;BME280;63804;53.120;8.764;2023-04-24T12:31:29;100151.56;;;12.41;73.27
54920;BME280;63804;53.120;8.764;2023-04-24T12:33:59;100157.84;;;12.40;73.30
54920;BME280;63804;53.120;8.764;2023-04-24T12:36:26;100158.81;;;12.49;73.42
54920;BME280;63804;53.120;8.764;2023-04-24T12:38:53;100160.19;;;12.63;73.11
54920;BME280;63804;53.120;8.764;2023-04-24T12:41:23;100169.16;;;12.72;73.14
54920;BME280;63804;53.120;8.764;2023-04-24T12:43:53;100169.72;;;12.75;73.03
54920;BME280;63804;53.120;8.764;2023-04-24T12:46:22;100172.38;;;12.75;73.06
54920;BME280;63804;53.120;8.764;2023-04-24T12:48:49;100175.88;;;12.76;73.07
54920;BME280;63804;53.120;8.764;2023-04-24T12:51:20;100173.19;;;12.66;73.24
54920;BME280;63804;53.120;8.764;2023-04-24T12:53:47;100182.44;;;12.72;73.58
54920;BME280;63804;53.120;8.764;2023-04-24T12:56:16;100184.09;;;12.63;74.00
54920;BME280;63804;53.120;8.764;2023-04-24T12:58:43;100186.34;;;12.58;74.28
54920;BME280;63804;53.120;8.764;2023-04-24T13:01:13;100186.22;;;12.59;74.48
54920;BME280;63804;53.120;8.764;2023-04-24T13:03:40;100200.63;;;12.57;74.19
54920;BME280;63804;53.120;8.764;2023-04-24T13:06:07;100226.19;;;12.38;73.68